createdAt,value
2019-03-21T00:01:24.853Z,28.70
2019-03-21T00:04:30.351Z,30.07
2019-03-21T00:07:35.603Z,32.03
2019-03-21T00:11:23.995Z,31.57
2019-03-21T00:14:56.025Z,32.17
2019-03-21T00:18:10.178Z,32.97
2019-03-21T00:21:15.287Z,31.73
2019-03-21T00:24:20.371Z,33.77
2019-03-21T00:27:25.411Z,33.27
2019-03-21T00:30:31.632Z,33.87
2019-03-21T00:33:37.190Z,32.30
2019-03-21T00:36:42.501Z,34.10
2019-03-21T00:39:47.639Z,31.93
2019-03-21T00:42:53.287Z,29.47
2019-03-21T00:45:58.333Z,31.63
2019-03-21T00:49:03.333Z,31.17
2019-03-21T00:52:11.114Z,32.93
2019-03-21T00:55:17.644Z,31.90
2019-03-21T00:58:22.634Z,30.67
2019-03-21T01:01:28.882Z,35.20
2019-03-21T01:04:35.131Z,35.47
2019-03-21T01:07:40.076Z,34.40
2019-03-21T01:10:45.083Z,34.13
2019-03-21T01:13:49.965Z,34.03
2019-03-21T01:16:55.227Z,34.03
2019-03-21T01:20:00.192Z,33.57
2019-03-21T01:23:05.224Z,34.47
2019-03-21T01:26:10.278Z,32.80
2019-03-21T01:29:18.937Z,35.53
2019-03-21T01:32:23.804Z,32.87
2019-03-21T01:35:28.785Z,32.57
2019-03-21T01:38:33.641Z,30.47
2019-03-21T01:41:57.278Z,33.20
2019-03-21T01:45:02.230Z,32.83
2019-03-21T01:48:07.070Z,31.97
2019-03-21T01:51:11.957Z,31.80
2019-03-21T01:54:16.782Z,30.70
2019-03-21T01:57:21.970Z,33.23
2019-03-21T02:00:29.493Z,34.07
2019-03-21T02:03:37.355Z,34.53
2019-03-21T02:06:42.188Z,33.33
2019-03-21T02:09:47.084Z,35.17
2019-03-21T02:12:54.097Z,34.13
2019-03-21T02:15:59.368Z,33.93
2019-03-21T02:19:04.425Z,33.67
2019-03-21T02:22:09.216Z,32.30
2019-03-21T02:25:19.795Z,32.83
2019-03-21T02:28:24.592Z,31.73
2019-03-21T02:31:30.537Z,33.37
2019-03-21T02:34:35.449Z,32.43
2019-03-21T02:37:40.368Z,29.90
2019-03-21T02:40:45.452Z,30.53
2019-03-21T02:43:50.380Z,29.67
2019-03-21T02:46:55.366Z,27.17
2019-03-21T02:50:03.602Z,29.40
2019-03-21T02:53:08.422Z,29.47
2019-03-21T02:56:15.156Z,30.50
2019-03-21T02:59:20.154Z,30.30
2019-03-21T03:02:24.955Z,28.87
2019-03-21T03:05:31.042Z,29.70
2019-03-21T03:08:35.898Z,26.20
2019-03-21T03:11:42.927Z,24.90
2019-03-21T03:14:47.765Z,26.13
2019-03-21T03:17:55.930Z,22.93
2019-03-21T03:21:03.982Z,23.43
2019-03-21T03:24:09.759Z,22.97
2019-03-21T03:27:14.675Z,20.10
2019-03-21T03:30:21.360Z,22.77
2019-03-21T03:33:26.188Z,21.87
2019-03-21T03:36:31.030Z,18.53
2019-03-21T03:39:37.154Z,20.00
2019-03-21T03:42:42.162Z,20.60
2019-03-21T03:45:47.099Z,21.97
2019-03-21T03:48:51.910Z,22.00
2019-03-21T03:51:59.572Z,21.93
2019-03-21T03:55:04.622Z,21.80
2019-03-21T03:58:11.835Z,22.00
2019-03-21T04:01:16.656Z,21.63
2019-03-21T04:04:21.792Z,21.57
2019-03-21T04:07:27.943Z,21.63
2019-03-21T04:10:35.212Z,21.93
2019-03-21T04:13:40.129Z,20.57
2019-03-21T04:16:44.977Z,22.10
2019-03-21T04:19:49.897Z,22.53
2019-03-21T04:22:54.847Z,21.77
2019-03-21T04:26:06.262Z,22.97
2019-03-21T04:29:11.083Z,24.13
2019-03-21T04:32:15.893Z,19.97
2019-03-21T04:35:20.830Z,22.03
2019-03-21T04:38:25.861Z,22.47
2019-03-21T04:41:30.708Z,21.57
2019-03-21T04:44:35.543Z,22.10
2019-03-21T04:47:40.448Z,21.73
2019-03-21T04:50:45.412Z,20.67
2019-03-21T04:53:50.249Z,20.30
2019-03-21T04:56:55.158Z,22.40
2019-03-21T05:00:03.647Z,19.87
2019-03-21T05:03:08.773Z,20.80
2019-03-21T05:06:13.584Z,19.73
2019-03-21T05:09:20.198Z,19.23
2019-03-21T05:12:25.072Z,17.30
2019-03-21T05:15:32.622Z,18.97
2019-03-21T05:18:38.799Z,18.70
2019-03-21T05:21:45.163Z,19.83
2019-03-21T05:24:50.010Z,19.60
2019-03-21T05:27:54.947Z,18.47
2019-03-21T05:31:05.799Z,20.43
2019-03-21T05:34:10.651Z,20.63
2019-03-21T05:37:15.571Z,18.70
2019-03-21T05:40:20.900Z,19.27
2019-03-21T05:43:35.631Z,20.03
2019-03-21T05:46:40.550Z,19.53
2019-03-21T05:49:45.438Z,19.53
2019-03-21T05:52:50.400Z,19.57
2019-03-21T05:55:59.410Z,18.77
2019-03-21T05:59:04.705Z,18.57
2019-03-21T06:02:09.621Z,18.27
2019-03-21T06:05:17.270Z,19.63
2019-03-21T06:08:25.497Z,16.90
2019-03-21T06:11:30.577Z,19.23
2019-03-21T06:14:38.983Z,20.50
2019-03-21T06:17:43.703Z,20.37
2019-03-21T06:21:09.765Z,21.60
2019-03-21T06:24:26.729Z,18.37
2019-03-21T06:27:31.792Z,19.07
2019-03-21T06:30:36.729Z,19.23
2019-03-21T06:33:41.679Z,19.47
2019-03-21T06:36:46.607Z,19.77
2019-03-21T06:39:51.575Z,18.37
2019-03-21T06:42:56.488Z,14.87
2019-03-21T06:46:01.450Z,19.93
2019-03-21T06:49:06.368Z,16.73
2019-03-21T06:52:11.223Z,17.73
2019-03-21T06:55:16.055Z,16.87
2019-03-21T06:58:20.886Z,17.20
2019-03-21T07:01:26.134Z,16.93
2019-03-21T07:04:31.043Z,16.87
2019-03-21T07:07:37.304Z,15.27
2019-03-21T07:10:42.212Z,14.73
2019-03-21T07:13:47.091Z,15.47
2019-03-21T07:17:00.028Z,15.07
2019-03-21T07:19:58.684Z,16.00
2019-03-21T07:23:03.495Z,16.87
2019-03-21T07:26:08.343Z,18.80
2019-03-21T07:29:16.024Z,17.00
2019-03-21T07:32:20.857Z,15.83
2019-03-21T07:35:25.684Z,14.50
2019-03-21T07:38:30.500Z,14.83
2019-03-21T07:41:35.376Z,13.97
2019-03-21T07:45:01.317Z,13.87
2019-03-21T07:48:06.269Z,14.67
2019-03-21T07:51:11.207Z,14.73
2019-03-21T07:54:19.181Z,14.97
2019-03-21T07:57:24.104Z,15.87
2019-03-21T08:00:29.160Z,17.80
2019-03-21T08:03:34.105Z,18.90
2019-03-21T08:06:38.974Z,19.70
2019-03-21T08:10:46.259Z,21.17
2019-03-21T08:13:52.633Z,20.77
2019-03-21T08:16:57.553Z,23.20
2019-03-21T08:20:02.471Z,24.30
2019-03-21T08:23:07.623Z,25.07
2019-03-21T08:26:14.412Z,26.10
2019-03-21T08:29:22.141Z,25.77
2019-03-21T08:32:28.307Z,24.27
2019-03-21T08:35:33.258Z,25.53
2019-03-21T08:38:39.397Z,29.87
2019-03-21T08:41:44.241Z,30.57
2019-03-21T08:44:49.111Z,28.77
2019-03-21T08:47:54.079Z,33.03
2019-03-21T08:51:07.738Z,30.83
2019-03-21T08:54:05.911Z,31.40
2019-03-21T08:57:10.859Z,29.23
2019-03-21T09:00:18.741Z,31.80
2019-03-21T09:09:01.352Z,28.93
2019-03-21T09:12:09.198Z,31.90
2019-03-21T09:15:17.623Z,30.17
2019-03-21T09:18:22.555Z,31.90
2019-03-21T09:21:30.439Z,32.80
2019-03-21T09:24:38.355Z,31.57
2019-03-21T09:27:43.177Z,29.03
2019-03-21T09:30:50.510Z,28.83
2019-03-21T09:33:57.528Z,30.03
2019-03-21T09:37:05.410Z,29.77
2019-03-21T09:40:10.853Z,30.37
2019-03-21T09:43:17.456Z,28.83
2019-03-21T09:46:22.504Z,29.07
2019-03-21T09:49:27.374Z,25.77
2019-03-21T09:52:32.297Z,27.83
2019-03-21T09:55:37.130Z,29.37
2019-03-21T09:58:42.090Z,29.07
2019-03-21T10:01:47.354Z,27.43
2019-03-21T10:04:52.292Z,24.60
2019-03-21T10:07:59.446Z,26.20
2019-03-21T10:11:03.974Z,26.30
2019-03-21T10:14:08.891Z,26.63
2019-03-21T10:17:13.859Z,26.27
2019-03-21T10:20:18.729Z,24.27
2019-03-21T10:23:23.610Z,25.90
2019-03-21T10:26:28.763Z,22.63
2019-03-21T10:29:33.721Z,22.53
2019-03-21T10:32:38.573Z,27.20
2019-03-21T10:35:43.554Z,26.43
2019-03-21T10:38:48.525Z,26.03
2019-03-21T10:41:53.443Z,23.97
2019-03-21T10:44:59.555Z,27.43
2019-03-21T10:48:04.586Z,25.13
2019-03-21T10:51:09.502Z,28.20
2019-03-21T10:54:15.610Z,27.83
2019-03-21T10:57:20.430Z,26.37
2019-03-21T11:00:25.234Z,28.97
2019-03-21T11:03:30.163Z,29.13
2019-03-21T11:06:35.166Z,25.57
2019-03-21T11:09:41.262Z,29.90
2019-03-21T11:12:46.242Z,27.03
2019-03-21T11:15:51.159Z,27.20
2019-03-21T11:18:55.974Z,26.07
2019-03-21T11:22:06.259Z,29.17
2019-03-21T11:25:07.547Z,27.53
2019-03-21T11:28:13.169Z,27.57
2019-03-21T11:31:18.115Z,29.07
2019-03-21T11:34:22.933Z,30.07
2019-03-21T11:37:27.857Z,32.17
2019-03-21T11:40:32.689Z,29.47
2019-03-21T11:43:37.723Z,31.37
2019-03-21T11:46:42.570Z,28.93
2019-03-21T11:49:47.391Z,23.40
2019-03-21T11:52:53.968Z,34.13
2019-03-21T11:55:58.816Z,31.67
2019-03-21T11:59:03.702Z,29.60
2019-03-21T12:02:08.616Z,25.57
2019-03-21T12:05:13.696Z,30.93
2019-03-21T12:08:18.517Z,31.37
2019-03-21T12:11:23.439Z,32.40
2019-03-21T12:14:28.252Z,28.23
2019-03-21T12:17:33.078Z,31.90
2019-03-21T12:20:37.904Z,31.20
2019-03-21T12:23:42.720Z,32.20
2019-03-21T12:26:47.560Z,31.77
2019-03-21T12:29:52.436Z,29.53
2019-03-21T12:32:57.435Z,32.33
2019-03-21T12:36:02.265Z,31.93
2019-03-21T12:39:09.728Z,32.20
2019-03-21T12:42:14.551Z,31.10
2019-03-21T12:45:22.261Z,28.13
2019-03-21T12:48:28.228Z,31.77
2019-03-21T12:51:35.008Z,31.73
2019-03-21T12:54:39.839Z,31.23
2019-03-21T12:57:44.691Z,29.73
2019-03-21T13:00:49.520Z,28.20
2019-03-21T13:03:54.366Z,32.10
2019-03-21T13:06:59.348Z,30.50
2019-03-21T13:10:04.948Z,30.93
2019-03-21T13:13:11.118Z,29.30
2019-03-21T13:16:16.058Z,31.93
2019-03-21T13:19:20.888Z,32.00
2019-03-21T13:22:25.869Z,30.33
2019-03-21T13:25:33.697Z,32.63
2019-03-21T13:28:38.716Z,33.53
2019-03-21T13:31:43.592Z,32.40
2019-03-21T13:34:48.408Z,32.50
2019-03-21T13:37:54.060Z,32.10
2019-03-21T13:40:59.066Z,29.37
2019-03-21T13:44:04.225Z,33.67
2019-03-21T13:47:09.191Z,33.80
2019-03-21T13:50:14.301Z,32.83
2019-03-21T13:53:19.335Z,34.00
2019-03-21T13:56:24.503Z,30.03
2019-03-21T13:59:29.417Z,31.07
2019-03-21T14:02:34.267Z,29.97
2019-03-21T14:05:40.353Z,32.03
2019-03-21T14:08:45.191Z,31.33
2019-03-21T14:11:52.290Z,31.07
2019-03-21T14:14:56.849Z,30.57
2019-03-21T14:18:04.748Z,32.57
2019-03-21T14:21:10.701Z,31.63
2019-03-21T14:24:15.517Z,32.93
2019-03-21T14:27:20.455Z,35.23
2019-03-21T14:30:25.385Z,34.60
2019-03-21T14:33:32.353Z,32.80
2019-03-21T14:36:37.283Z,32.57
2019-03-21T14:39:42.234Z,30.77
2019-03-21T14:42:47.176Z,35.17
2019-03-21T14:45:51.975Z,31.43
2019-03-21T14:48:56.793Z,29.90
2019-03-21T14:52:03.632Z,33.60
2019-03-21T14:55:08.960Z,32.47
2019-03-21T14:58:13.822Z,34.63
2019-03-21T15:01:18.652Z,31.90
2019-03-21T15:04:23.488Z,35.67
2019-03-21T15:07:28.503Z,35.10
2019-03-21T15:10:36.065Z,34.50
2019-03-21T15:13:40.908Z,33.20
2019-03-21T15:16:46.021Z,30.93
2019-03-21T15:19:52.334Z,34.37
2019-03-21T15:22:57.230Z,33.73
2019-03-21T15:26:02.223Z,33.80
2019-03-21T15:29:07.168Z,34.13
2019-03-21T15:32:12.014Z,36.50
2019-03-21T15:35:17.474Z,33.17
2019-03-21T15:38:22.376Z,34.37
2019-03-21T15:41:31.275Z,35.90
2019-03-21T15:44:36.128Z,35.63
2019-03-21T15:47:42.287Z,34.13
2019-03-21T15:50:47.232Z,36.50
2019-03-21T15:53:56.361Z,32.87
2019-03-21T15:56:58.763Z,37.13
2019-03-21T16:00:03.688Z,34.27
2019-03-21T16:03:09.187Z,34.23
2019-03-21T16:06:14.208Z,36.93
2019-03-21T16:09:22.055Z,35.33
2019-03-21T16:12:30.152Z,34.00
2019-03-21T16:15:35.005Z,34.63
2019-03-21T16:18:41.909Z,36.07
2019-03-21T16:21:47.765Z,35.43
2019-03-21T16:24:53.531Z,37.87
2019-03-21T16:27:59.163Z,36.70
2019-03-21T16:31:05.003Z,36.83
2019-03-21T16:34:10.448Z,37.27
2019-03-21T16:37:19.340Z,36.50
2019-03-21T16:40:25.134Z,38.70
2019-03-21T16:43:30.594Z,41.37
2019-03-21T16:46:36.016Z,39.77
2019-03-21T16:49:41.147Z,37.03
2019-03-21T16:52:46.398Z,35.03
2019-03-21T16:55:51.987Z,37.50
2019-03-21T16:58:58.852Z,38.33
2019-03-21T17:02:03.975Z,37.17
2019-03-21T17:05:09.634Z,36.13
2019-03-21T17:08:17.951Z,37.73
2019-03-21T17:11:22.890Z,38.13
2019-03-21T17:14:27.830Z,38.20
2019-03-21T17:17:32.828Z,41.27
2019-03-21T17:20:37.720Z,39.40
2019-03-21T17:23:42.673Z,41.73
2019-03-21T17:26:47.542Z,40.63
2019-03-21T17:29:52.515Z,40.77
2019-03-21T17:32:59.251Z,41.67
2019-03-21T17:36:04.139Z,42.03
2019-03-21T17:39:10.159Z,41.67
2019-03-21T17:42:16.309Z,40.87
2019-03-21T17:45:21.354Z,39.10
2019-03-21T17:48:26.346Z,40.13
2019-03-21T17:51:31.215Z,36.87
2019-03-21T17:54:41.545Z,36.17
2019-03-21T17:57:42.733Z,37.03
2019-03-21T18:00:51.251Z,35.70
2019-03-21T18:03:56.725Z,35.40
2019-03-21T18:07:01.695Z,37.07
2019-03-21T18:10:08.023Z,34.60
2019-03-21T18:13:12.980Z,35.47
2019-03-21T18:16:19.944Z,35.63
2019-03-21T18:19:24.911Z,33.87
2019-03-21T18:22:29.956Z,33.07
2019-03-21T18:25:34.878Z,33.37
2019-03-21T18:28:41.061Z,34.10
2019-03-21T18:31:45.902Z,35.50
2019-03-21T18:34:51.207Z,33.87
2019-03-21T18:37:56.175Z,33.23
2019-03-21T18:41:01.215Z,32.87
2019-03-21T18:44:06.332Z,32.63
2019-03-21T18:47:12.895Z,34.93
2019-03-21T18:50:18.126Z,34.27
2019-03-21T18:53:23.581Z,34.70
2019-03-21T18:56:28.539Z,30.57
2019-03-21T18:59:34.845Z,30.67
2019-03-21T19:02:39.820Z,30.30
2019-03-21T19:05:46.239Z,31.63
2019-03-21T19:08:51.108Z,31.33
2019-03-21T19:11:57.404Z,32.17
2019-03-21T19:15:10.610Z,32.77
2019-03-21T19:18:18.862Z,29.83
2019-03-21T19:21:24.220Z,31.40
2019-03-21T19:24:29.265Z,30.47
2019-03-21T19:27:35.405Z,29.87
2019-03-21T19:30:44.983Z,31.07
2019-03-21T19:33:51.218Z,32.13
2019-03-21T19:36:56.388Z,30.13
2019-03-21T19:40:01.473Z,29.17
2019-03-21T19:43:06.438Z,31.27
2019-03-21T19:46:13.631Z,29.33
2019-03-21T19:49:20.116Z,32.23
2019-03-21T19:52:27.010Z,31.30
2019-03-21T19:55:33.806Z,32.30
2019-03-21T19:58:38.703Z,31.07
2019-03-21T20:01:43.728Z,31.13
2019-03-21T20:04:48.775Z,30.97
2019-03-21T20:07:56.627Z,27.50
2019-03-21T20:11:01.593Z,29.83
2019-03-21T20:14:06.808Z,31.10
2019-03-21T20:17:11.950Z,27.77
2019-03-21T20:20:17.323Z,30.87
2019-03-21T20:23:24.606Z,29.80
2019-03-21T20:26:29.490Z,28.70
2019-03-21T20:29:34.527Z,26.17
2019-03-21T20:32:39.642Z,28.20
2019-03-21T20:35:44.796Z,30.50
2019-03-21T20:38:49.656Z,30.80
2019-03-21T20:41:54.688Z,33.23
2019-03-21T20:44:59.580Z,35.23
2019-03-21T20:48:07.752Z,35.20
2019-03-21T20:51:12.707Z,36.47
2019-03-21T20:54:17.581Z,35.30
2019-03-21T20:57:22.420Z,34.00
2019-03-21T21:00:27.617Z,33.30
2019-03-21T21:03:34.046Z,34.13
2019-03-21T21:06:38.999Z,33.97
2019-03-21T21:09:46.680Z,27.67
2019-03-21T21:12:51.616Z,32.83
2019-03-21T21:15:56.578Z,29.17
2019-03-21T21:19:04.209Z,30.93
2019-03-21T21:22:09.111Z,23.93
2019-03-21T21:25:14.258Z,21.20
2019-03-21T21:28:19.199Z,23.03
2019-03-21T21:31:24.150Z,22.83
2019-03-21T21:34:29.007Z,22.87
2019-03-21T21:37:33.863Z,19.40
2019-03-21T21:40:40.233Z,19.43
2019-03-21T21:43:45.102Z,20.03
2019-03-21T21:46:49.899Z,18.97
2019-03-21T21:49:54.736Z,20.00
2019-03-21T21:52:59.588Z,20.53
2019-03-21T21:56:16.869Z,20.83
2019-03-21T21:59:11.120Z,21.40
2019-03-21T22:02:17.206Z,22.63
2019-03-21T22:05:22.086Z,23.40
2019-03-21T22:08:27.260Z,22.40
2019-03-21T22:11:32.332Z,23.13
2019-03-21T22:14:37.426Z,24.97
2019-03-21T22:17:42.500Z,22.47
2019-03-21T22:20:47.698Z,21.17
2019-03-21T22:23:52.809Z,21.40
2019-03-21T22:26:57.759Z,21.97
2019-03-21T22:30:04.359Z,21.67
2019-03-21T22:33:09.522Z,22.00
2019-03-21T22:36:14.465Z,24.13
2019-03-21T22:39:19.296Z,23.90
2019-03-21T22:42:25.607Z,25.37
2019-03-21T22:45:31.531Z,27.13
2019-03-21T22:48:36.376Z,27.30
2019-03-21T22:51:41.200Z,28.00
2019-03-21T22:54:46.056Z,27.07
2019-03-21T22:57:50.910Z,25.10
2019-03-21T23:00:55.696Z,25.00
2019-03-21T23:04:02.734Z,25.60
2019-03-21T23:07:06.986Z,25.50
2019-03-21T23:10:12.411Z,25.00
2019-03-21T23:13:17.155Z,26.03
2019-03-21T23:16:22.123Z,27.97
2019-03-21T23:19:28.060Z,28.27
2019-03-21T23:22:34.129Z,25.10
2019-03-21T23:25:39.113Z,24.33
2019-03-21T23:28:43.905Z,25.60
2019-03-21T23:31:48.779Z,26.33
2019-03-21T23:34:53.593Z,27.00
2019-03-21T23:37:58.409Z,27.37
2019-03-21T23:41:03.337Z,24.87
2019-03-21T23:44:08.167Z,27.90
2019-03-21T23:47:15.727Z,26.23
2019-03-21T23:50:20.536Z,23.93
2019-03-21T23:53:25.372Z,22.47
2019-03-21T23:56:30.523Z,20.17
2019-03-21T23:59:35.334Z,19.00
